sensor_id;sensor_type;location;lat;lon;timestamp;temperature;humidity
12520;DHT22;6325;49.540;8.364;2022-11-20T07:06:55;5.30;99.90
12520;DHT22;6325;49.540;8.364;2022-11-20T07:09:35;5.10;99.90
12520;DHT22;6325;49.540;8.364;2022-11-20T07:12:12;5.30;99.90
12520;DHT22;6325;49.540;8.364;2022-11-20T07:14:42;4.40;99.90
12520;DHT22;6325;49.540;8.364;2022-11-20T07:17:16;5.10;99.90
12520;DHT22;6325;49.540;8.364;2022-11-20T07:19:55;5.90;99.90
12520;DHT22;6325;49.540;8.364;2022-11-20T07:22:28;5.30;99.90
12520;DHT22;6325;49.540;8.364;2022-11-20T07:24:58;5.30;99.90
12520;DHT22;6325;49.540;8.364;2022-11-20T07:27:32;5.70;99.90
12520;DHT22;6325;49.540;8.364;2022-11-20T07:30:08;5.30;99.90
12520;DHT22;6325;49.540;8.364;2022-11-20T07:32:42;5.40;99.90
12520;DHT22;6325;49.540;8.364;2022-11-20T07:35:20;5.80;99.90
12520;DHT22;6325;49.540;8.364;2022-11-20T07:37:53;5.40;99.90
12520;DHT22;6325;49.540;8.364;2022-11-20T07:40:23;5.90;99.90
12520;DHT22;6325;49.540;8.364;2022-11-20T07:42:56;5.80;99.90
12520;DHT22;6325;49.540;8.364;2022-11-20T07:45:31;5.10;99.90
12520;DHT22;6325;49.540;8.364;2022-11-20T07:48:02;5.00;99.90
12520;DHT22;6325;49.540;8.364;2022-11-20T07:50:49;5.60;99.90
12520;DHT22;6325;49.540;8.364;2022-11-20T07:53:28;6.10;99.90
12520;DHT22;6325;49.540;8.364;2022-11-20T07:56:10;4.80;99.90
12520;DHT22;6325;49.540;8.364;2022-11-20T07:58:44;5.70;99.90
12520;DHT22;6325;49.540;8.364;2022-11-20T08:01:17;5.80;99.90
12520;DHT22;6325;49.540;8.364;2022-11-20T08:03:52;5.80;99.90
12520;DHT22;6325;49.540;8.364;2022-11-20T08:06:22;5.70;99.90
12520;DHT22;6325;49.540;8.364;2022-11-20T08:08:58;6.00;99.90
12520;DHT22;6325;49.540;8.364;2022-11-20T08:11:29;5.40;99.90
12520;DHT22;6325;49.540;8.364;2022-11-20T08:14:20;5.60;99.90
12520;DHT22;6325;49.540;8.364;2022-11-20T08:16:53;5.80;99.90
12520;DHT22;6325;49.540;8.364;2022-11-20T08:19:30;5.20;99.90
12520;DHT22;6325;49.540;8.364;2022-11-20T08:22:01;5.50;99.90
12520;DHT22;6325;49.540;8.364;2022-11-20T08:24:37;5.30;99.90
12520;DHT22;6325;49.540;8.364;2022-11-20T08:27:10;5.60;99.90
12520;DHT22;6325;49.540;8.364;2022-11-20T08:29:46;5.20;99.90
12520;DHT22;6325;49.540;8.364;2022-11-20T08:32:17;6.00;99.90
12520;DHT22;6325;49.540;8.364;2022-11-20T08:34:52;5.90;99.90
12520;DHT22;6325;49.540;8.364;2022-11-20T08:37:26;5.20;99.90
12520;DHT22;6325;49.540;8.364;2022-11-20T08:40:05;5.90;99.90
12520;DHT22;6325;49.540;8.364;2022-11-20T08:42:50;6.10;99.90
12520;DHT22;6325;49.540;8.364;2022-11-20T08:45:24;5.20;99.90
12520;DHT22;6325;49.540;8.364;2022-11-20T08:48:06;5.50;99.90
12520;DHT22;6325;49.540;8.364;2022-11-20T08:50:36;5.90;99.90
12520;DHT22;6325;49.540;8.364;2022-11-20T08:53:09;5.90;99.90
12520;DHT22;6325;49.540;8.364;2022-11-20T08:55:50;6.00;99.90
12520;DHT22;6325;49.540;8.364;2022-11-20T08:58:23;5.80;99.90
12520;DHT22;6325;49.540;8.364;2022-11-20T09:00:55;5.80;99.90
12520;DHT22;6325;49.540;8.364;2022-11-20T09:03:31;6.00;99.90
12520;DHT22;6325;49.540;8.364;2022-11-20T09:06:02;6.30;99.90
12520;DHT22;6325;49.540;8.364;2022-11-20T09:08:32;5.60;99.90
12520;DHT22;6325;49.540;8.364;2022-11-20T09:11:12;6.70;99.90
12520;DHT22;6325;49.540;8.364;2022-11-20T09:13:42;5.80;99.90
12520;DHT22;6325;49.540;8.364;2022-11-20T09:16:16;5.30;99.90
12520;DHT22;6325;49.540;8.364;2022-11-20T09:18:49;5.30;99.90
12520;DHT22;6325;49.540;8.364;2022-11-20T09:21:16;6.50;99.90
12520;DHT22;6325;49.540;8.364;2022-11-20T09:23:48;6.20;99.90
12520;DHT22;6325;49.540;8.364;2022-11-20T09:26:21;6.20;99.90
12520;DHT22;6325;49.540;8.364;2022-11-20T09:28:52;6.50;99.90
12520;DHT22;6325;49.540;8.364;2022-11-20T09:31:23;6.20;99.90
12520;DHT22;6325;49.540;8.364;2022-11-20T09:33:51;6.60;99.90
12520;DHT22;6325;49.540;8.364;2022-11-20T09:36:24;5.70;99.90
12520;DHT22;6325;49.540;8.364;2022-11-20T09:38:54;5.50;99.90
12520;DHT22;6325;49.540;8.364;2022-11-20T09:41:42;6.10;99.90
12520;DHT22;6325;49.540;8.364;2022-11-20T09:44:29;6.10;99.90
12520;DHT22;6325;49.540;8.364;2022-11-20T09:47:05;6.20;99.90
12520;DHT22;6325;49.540;8.364;2022-11-20T09:49:47;6.00;99.90
12520;DHT22;6325;49.540;8.364;2022-11-20T09:52:25;6.50;99.90
12520;DHT22;6325;49.540;8.364;2022-11-20T09:54:58;6.30;99.90
12520;DHT22;6325;49.540;8.364;2022-11-20T09:57:34;6.10;99.90
12520;DHT22;6325;49.540;8.364;2022-11-20T10:00:08;6.30;99.90
12520;DHT22;6325;49.540;8.364;2022-11-20T10:02:41;6.10;99.90
12520;DHT22;6325;49.540;8.364;2022-11-20T10:05:14;6.40;99.90
12520;DHT22;6325;49.540;8.364;2022-11-20T10:07:47;6.20;99.90
12520;DHT22;6325;49.540;8.364;2022-11-20T10:10:29;5.80;99.90
12520;DHT22;6325;49.540;8.364;2022-11-20T10:13:10;6.10;99.90
12520;DHT22;6325;49.540;8.364;2022-11-20T10:15:47;5.60;99.90
12520;DHT22;6325;49.540;8.364;2022-11-20T10:18:33;6.60;99.90
12520;DHT22;6325;49.540;8.364;2022-11-20T10:21:11;6.20;99.90
12520;DHT22;6325;49.540;8.364;2022-11-20T10:24:00;6.30;99.90
12520;DHT22;6325;49.540;8.364;2022-11-20T10:26:50;6.20;99.90
12520;DHT22;6325;49.540;8.364;2022-11-20T10:29:58;6.90;99.90
12520;DHT22;6325;49.540;8.364;2022-11-20T10:32:38;6.10;99.90
12520;DHT22;6325;49.540;8.364;2022-11-20T10:35:35;6.00;99.90
12520;DHT22;6325;49.540;8.364;2022-11-20T10:38:19;7.10;99.90
12520;DHT22;6325;49.540;8.364;2022-11-20T10:41:17;6.10;99.90
12520;DHT22;6325;49.540;8.364;2022-11-20T10:44:05;6.40;99.90
12520;DHT22;6325;49.540;8.364;2022-11-20T10:46:47;6.80;99.90
12520;DHT22;6325;49.540;8.364;2022-11-20T10:49:31;6.70;99.90
12520;DHT22;6325;49.540;8.364;2022-11-20T10:52:21;6.60;99.90
12520;DHT22;6325;49.540;8.364;2022-11-20T10:55:05;6.70;99.90
12520;DHT22;6325;49.540;8.364;2022-11-20T10:58:05;7.20;99.90
12520;DHT22;6325;49.540;8.364;2022-11-20T11:00:58;6.70;99.90
12520;DHT22;6325;49.540;8.364;2022-11-20T11:03:50;7.30;99.90
12520;DHT22;6325;49.540;8.364;2022-11-20T11:06:31;6.70;99.90
12520;DHT22;6325;49.540;8.364;2022-11-20T11:09:24;7.30;99.90
12520;DHT22;6325;49.540;8.364;2022-11-20T11:12:20;7.80;99.90
12520;DHT22;6325;49.540;8.364;2022-11-20T11:15:10;7.50;99.90
12520;DHT22;6325;49.540;8.364;2022-11-20T11:18:07;7.40;99.90
12520;DHT22;6325;49.540;8.364;2022-11-20T11:20:53;7.90;99.90
12520;DHT22;6325;49.540;8.364;2022-11-20T11:23:41;7.90;99.90
12520;DHT22;6325;49.540;8.364;2022-11-20T11:26:22;8.20;99.90
12520;DHT22;6325;49.540;8.364;2022-11-20T11:29:30;8.00;99.90
12520;DHT22;6325;49.540;8.364;2022-11-20T11:32:24;8.00;99.90
12520;DHT22;6325;49.540;8.364;2022-11-20T11:35:17;8.20;99.90
12520;DHT22;6325;49.540;8.364;2022-11-20T11:38:05;7.80;99.90
12520;DHT22;6325;49.540;8.364;2022-11-20T11:40:40;8.50;99.90
12520;DHT22;6325;49.540;8.364;2022-11-20T11:43:29;7.90;99.90
12520;DHT22;6325;49.540;8.364;2022-11-20T11:46:35;8.10;99.90
12520;DHT22;6325;49.540;8.364;2022-11-20T11:49:19;7.60;99.90
12520;DHT22;6325;49.540;8.364;2022-11-20T11:52:14;7.80;99.90
12520;DHT22;6325;49.540;8.364;2022-11-20T11:55:14;8.10;99.90
12520;DHT22;6325;49.540;8.364;2022-11-20T11:57:59;7.40;99.90
12520;DHT22;6325;49.540;8.364;2022-11-20T12:01:03;8.50;99.90
12520;DHT22;6325;49.540;8.364;2022-11-20T12:04:04;8.20;99.90
12520;DHT22;6325;49.540;8.364;2022-11-20T12:07:25;7.80;99.90
12520;DHT22;6325;49.540;8.364;2022-11-20T12:10:23;7.90;99.90
12520;DHT22;6325;49.540;8.364;2022-11-20T12:16:39;8.60;99.90
12520;DHT22;6325;49.540;8.364;2022-11-20T12:22:36;8.70;99.90
12520;DHT22;6325;49.540;8.364;2022-11-20T12:25:49;8.00;99.90
12520;DHT22;6325;49.540;8.364;2022-11-20T12:28:50;8.30;99.90
12520;DHT22;6325;49.540;8.364;2022-11-20T12:31:51;9.10;99.90
12520;DHT22;6325;49.540;8.364;2022-11-20T12:34:51;7.90;99.90
12520;DHT22;6325;49.540;8.364;2022-11-20T12:38:05;8.80;99.90
12520;DHT22;6325;49.540;8.364;2022-11-20T12:41:00;9.10;99.90
12520;DHT22;6325;49.540;8.364;2022-11-20T12:43:59;9.40;99.90
12520;DHT22;6325;49.540;8.364;2022-11-20T12:47:13;8.50;99.90
12520;DHT22;6325;49.540;8.364;2022-11-20T12:50:08;8.30;99.90
12520;DHT22;6325;49.540;8.364;2022-11-20T12:53:02;9.10;99.90
12520;DHT22;6325;49.540;8.364;2022-11-20T12:55:53;9.00;99.90
12520;DHT22;6325;49.540;8.364;2022-11-20T12:58:58;9.10;99.90
12520;DHT22;6325;49.540;8.364;2022-11-20T13:01:55;8.90;99.90
12520;DHT22;6325;49.540;8.364;2022-11-20T13:04:51;8.50;99.90
12520;DHT22;6325;49.540;8.364;2022-11-20T13:07:45;9.30;99.90
12520;DHT22;6325;49.540;8.364;2022-11-20T13:10:37;8.90;99.90
12520;DHT22;6325;49.540;8.364;2022-11-20T13:13:37;8.80;99.90
12520;DHT22;6325;49.540;8.364;2022-11-20T13:22:55;9.00;99.90
12520;DHT22;6325;49.540;8.364;2022-11-20T13:26:02;8.50;99.90
12520;DHT22;6325;49.540;8.364;2022-11-20T13:29:01;8.60;99.90
12520;DHT22;6325;49.540;8.364;2022-11-20T13:32:00;9.30;99.90
12520;DHT22;6325;49.540;8.364;2022-11-20T13:34:57;8.80;99.90
12520;DHT22;6325;49.540;8.364;2022-11-20T13:37:58;9.60;99.90
12520;DHT22;6325;49.540;8.364;2022-11-20T13:41:00;9.80;99.90
12520;DHT22;6325;49.540;8.364;2022-11-20T13:43:59;9.80;99.90
12520;DHT22;6325;49.540;8.364;2022-11-20T13:46:50;9.30;99.90
12520;DHT22;6325;49.540;8.364;2022-11-20T13:49:44;9.90;99.90
12520;DHT22;6325;49.540;8.364;2022-11-20T13:52:45;9.70;99.90
12520;DHT22;6325;49.540;8.364;2022-11-20T13:55:49;10.00;99.90
12520;DHT22;6325;49.540;8.364;2022-11-20T13:58:44;9.70;99.90
12520;DHT22;6325;49.540;8.364;2022-11-20T14:04:55;9.80;99.90
12520;DHT22;6325;49.540;8.364;2022-11-20T14:07:51;9.80;99.90
12520;DHT22;6325;49.540;8.364;2022-11-20T14:13:18;9.80;99.90
12520;DHT22;6325;49.540;8.364;2022-11-20T14:15:47;10.10;99.90
12520;DHT22;6325;49.540;8.364;2022-11-20T14:18:28;10.10;99.90
12520;DHT22;6325;49.540;8.364;2022-11-20T14:21:00;9.90;99.90
12520;DHT22;6325;49.540;8.364;2022-11-20T14:23:32;9.80;99.90
12520;DHT22;6325;49.540;8.364;2022-11-20T14:26:00;9.60;99.90
12520;DHT22;6325;49.540;8.364;2022-11-20T14:28:30;10.00;99.90
12520;DHT22;6325;49.540;8.364;2022-11-20T14:31:00;9.50;99.90
12520;DHT22;6325;49.540;8.364;2022-11-20T14:33:32;10.20;99.90
12520;DHT22;6325;49.540;8.364;2022-11-20T14:36:02;9.40;99.90
12520;DHT22;6325;49.540;8.364;2022-11-20T14:38:32;8.70;99.90
12520;DHT22;6325;49.540;8.364;2022-11-20T14:41:33;8.80;99.90
12520;DHT22;6325;49.540;8.364;2022-11-20T14:44:29;9.80;99.90
12520;DHT22;6325;49.540;8.364;2022-11-20T14:47:29;9.50;99.90
12520;DHT22;6325;49.540;8.364;2022-11-20T14:50:37;9.00;99.90
12520;DHT22;6325;49.540;8.364;2022-11-20T14:57:31;8.50;99.90
12520;DHT22;6325;49.540;8.364;2022-11-20T15:00:26;9.00;99.90
12520;DHT22;6325;49.540;8.364;2022-11-20T15:04:19;8.40;99.90
12520;DHT22;6325;49.540;8.364;2022-11-20T15:18:20;8.80;99.90
12520;DHT22;6325;49.540;8.364;2022-11-20T15:23:17;8.50;99.90
12520;DHT22;6325;49.540;8.364;2022-11-20T15:28:40;8.30;99.90
12520;DHT22;6325;49.540;8.364;2022-11-20T15:31:47;9.00;99.90
12520;DHT22;6325;49.540;8.364;2022-11-20T15:34:44;9.10;99.90
12520;DHT22;6325;49.540;8.364;2022-11-20T15:37:12;8.10;99.90
12520;DHT22;6325;49.540;8.364;2022-11-20T15:40:01;8.80;99.90
12520;DHT22;6325;49.540;8.364;2022-11-20T15:43:00;9.10;99.90
12520;DHT22;6325;49.540;8.364;2022-11-20T15:46:22;9.10;99.90
12520;DHT22;6325;49.540;8.364;2022-11-20T15:56:29;8.60;99.90
12520;DHT22;6325;49.540;8.364;2022-11-20T16:02:43;8.50;99.90
12520;DHT22;6325;49.540;8.364;2022-11-20T16:05:13;8.40;99.90
12520;DHT22;6325;49.540;8.364;2022-11-20T16:08:12;7.80;99.90
12520;DHT22;6325;49.540;8.364;2022-11-20T16:11:58;8.70;99.90
12520;DHT22;6325;49.540;8.364;2022-11-20T16:15:03;8.90;99.90
12520;DHT22;6325;49.540;8.364;2022-11-20T16:24:03;8.80;99.90
12520;DHT22;6325;49.540;8.364;2022-11-20T16:26:37;7.80;99.90
12520;DHT22;6325;49.540;8.364;2022-11-20T16:29:16;8.60;99.90
12520;DHT22;6325;49.540;8.364;2022-11-20T16:32:18;8.40;99.90
12520;DHT22;6325;49.540;8.364;2022-11-20T16:35:31;8.30;99.90
12520;DHT22;6325;49.540;8.364;2022-11-20T16:42:13;8.20;99.90
12520;DHT22;6325;49.540;8.364;2022-11-20T16:45:12;8.10;99.90
12520;DHT22;6325;49.540;8.364;2022-11-20T16:48:13;8.50;99.90
12520;DHT22;6325;49.540;8.364;2022-11-20T16:51:14;8.40;99.90
12520;DHT22;6325;49.540;8.364;2022-11-20T16:54:24;8.10;99.90
12520;DHT22;6325;49.540;8.364;2022-11-20T17:04:07;8.10;99.90
12520;DHT22;6325;49.540;8.364;2022-11-20T17:10:35;8.10;99.90
12520;DHT22;6325;49.540;8.364;2022-11-20T17:19:47;8.00;99.90
12520;DHT22;6325;49.540;8.364;2022-11-20T17:22:16;8.60;99.90
12520;DHT22;6325;49.540;8.364;2022-11-20T17:24:43;8.10;99.90
12520;DHT22;6325;49.540;8.364;2022-11-20T17:27:13;8.40;99.90
12520;DHT22;6325;49.540;8.364;2022-11-20T17:29:41;8.40;99.90
12520;DHT22;6325;49.540;8.364;2022-11-20T17:32:10;8.50;99.90
12520;DHT22;6325;49.540;8.364;2022-11-20T17:34:40;8.20;99.90
12520;DHT22;6325;49.540;8.364;2022-11-20T17:37:09;8.30;99.90
12520;DHT22;6325;49.540;8.364;2022-11-20T17:39:40;8.20;99.90
12520;DHT22;6325;49.540;8.364;2022-11-20T17:42:09;8.20;99.90
12520;DHT22;6325;49.540;8.364;2022-11-20T17:45:01;7.80;99.90
12520;DHT22;6325;49.540;8.364;2022-11-20T17:47:36;8.20;99.90
12520;DHT22;6325;49.540;8.364;2022-11-20T17:50:32;8.60;99.90
12520;DHT22;6325;49.540;8.364;2022-11-20T17:53:44;8.00;99.90
12520;DHT22;6325;49.540;8.364;2022-11-20T17:59:03;8.70;99.90
12520;DHT22;6325;49.540;8.364;2022-11-20T18:01:33;8.10;99.90
12520;DHT22;6325;49.540;8.364;2022-11-20T18:04:03;8.20;99.90
12520;DHT22;6325;49.540;8.364;2022-11-20T18:06:34;8.30;99.90
12520;DHT22;6325;49.540;8.364;2022-11-20T18:09:06;8.20;99.90
12520;DHT22;6325;49.540;8.364;2022-11-20T18:11:38;8.40;99.90
12520;DHT22;6325;49.540;8.364;2022-11-20T18:14:11;8.30;99.90
12520;DHT22;6325;49.540;8.364;2022-11-20T18:17:01;7.70;99.90
12520;DHT22;6325;49.540;8.364;2022-11-20T18:19:32;7.90;99.90
12520;DHT22;6325;49.540;8.364;2022-11-20T18:22:02;8.20;99.90
12520;DHT22;6325;49.540;8.364;2022-11-20T18:24:34;8.60;99.90
12520;DHT22;6325;49.540;8.364;2022-11-20T18:27:05;8.00;99.90
12520;DHT22;6325;49.540;8.364;2022-11-20T18:29:42;7.70;99.90
12520;DHT22;6325;49.540;8.364;2022-11-20T18:32:16;7.90;99.90
12520;DHT22;6325;49.540;8.364;2022-11-20T18:34:49;8.40;99.90
12520;DHT22;6325;49.540;8.364;2022-11-20T18:37:19;7.90;99.90
12520;DHT22;6325;49.540;8.364;2022-11-20T18:39:49;7.80;99.90
12520;DHT22;6325;49.540;8.364;2022-11-20T18:42:18;8.10;99.90
12520;DHT22;6325;49.540;8.364;2022-11-20T18:45:03;8.10;99.90
12520;DHT22;6325;49.540;8.364;2022-11-20T18:47:34;8.00;99.90
12520;DHT22;6325;49.540;8.364;2022-11-20T18:50:04;7.90;99.90
12520;DHT22;6325;49.540;8.364;2022-11-20T18:52:44;8.50;99.90
12520;DHT22;6325;49.540;8.364;2022-11-20T18:55:46;7.50;99.90
12520;DHT22;6325;49.540;8.364;2022-11-20T18:58:36;8.10;99.90
12520;DHT22;6325;49.540;8.364;2022-11-20T19:01:35;8.50;99.90
12520;DHT22;6325;49.540;8.364;2022-11-20T19:07:32;8.20;99.90
12520;DHT22;6325;49.540;8.364;2022-11-20T19:10:34;8.10;99.90
12520;DHT22;6325;49.540;8.364;2022-11-20T19:13:14;8.40;99.90
12520;DHT22;6325;49.540;8.364;2022-11-20T19:15:49;7.80;99.90
12520;DHT22;6325;49.540;8.364;2022-11-20T19:18:27;8.20;99.90
12520;DHT22;6325;49.540;8.364;2022-11-20T19:20:55;7.80;99.90
12520;DHT22;6325;49.540;8.364;2022-11-20T19:23:28;8.00;99.90
12520;DHT22;6325;49.540;8.364;2022-11-20T19:25:57;7.80;99.90
12520;DHT22;6325;49.540;8.364;2022-11-20T19:28:29;8.00;99.90
12520;DHT22;6325;49.540;8.364;2022-11-20T19:31:02;7.80;99.90
12520;DHT22;6325;49.540;8.364;2022-11-20T19:33:30;7.50;99.90
12520;DHT22;6325;49.540;8.364;2022-11-20T19:36:08;7.80;99.90
12520;DHT22;6325;49.540;8.364;2022-11-20T19:38:36;8.10;99.90
12520;DHT22;6325;49.540;8.364;2022-11-20T19:41:06;8.30;99.90
12520;DHT22;6325;49.540;8.364;2022-11-20T19:43:40;7.90;99.90
12520;DHT22;6325;49.540;8.364;2022-11-20T19:46:16;7.90;99.90
12520;DHT22;6325;49.540;8.364;2022-11-20T19:48:45;8.30;99.90
12520;DHT22;6325;49.540;8.364;2022-11-20T19:51:14;7.90;99.90
12520;DHT22;6325;49.540;8.364;2022-11-20T19:53:42;7.60;99.90
12520;DHT22;6325;49.540;8.364;2022-11-20T19:56:20;7.70;99.90
12520;DHT22;6325;49.540;8.364;2022-11-20T19:58:58;7.50;99.90
12520;DHT22;6325;49.540;8.364;2022-11-20T20:01:40;7.60;99.90
12520;DHT22;6325;49.540;8.364;2022-11-20T20:04:31;8.10;99.90
12520;DHT22;6325;49.540;8.364;2022-11-20T20:07:24;7.40;99.90
12520;DHT22;6325;49.540;8.364;2022-11-20T20:09:59;7.40;99.90
12520;DHT22;6325;49.540;8.364;2022-11-20T20:12:48;7.80;99.90
12520;DHT22;6325;49.540;8.364;2022-11-20T20:15:26;7.60;99.90
12520;DHT22;6325;49.540;8.364;2022-11-20T20:18:20;7.40;99.90
12520;DHT22;6325;49.540;8.364;2022-11-20T20:21:30;7.50;99.90
12520;DHT22;6325;49.540;8.364;2022-11-20T20:24:11;7.60;99.90
12520;DHT22;6325;49.540;8.364;2022-11-20T20:27:03;7.40;99.90
12520;DHT22;6325;49.540;8.364;2022-11-20T20:29:41;7.30;99.90
12520;DHT22;6325;49.540;8.364;2022-11-20T20:32:17;7.70;99.90
12520;DHT22;6325;49.540;8.364;2022-11-20T20:34:55;8.00;99.90
12520;DHT22;6325;49.540;8.364;2022-11-20T20:37:38;7.10;99.90
12520;DHT22;6325;49.540;8.364;2022-11-20T20:40:30;7.20;99.90
12520;DHT22;6325;49.540;8.364;2022-11-20T20:43:11;7.50;99.90
12520;DHT22;6325;49.540;8.364;2022-11-20T20:45:56;7.70;99.90
12520;DHT22;6325;49.540;8.364;2022-11-20T20:48:33;7.50;99.90
12520;DHT22;6325;49.540;8.364;2022-11-20T20:51:12;7.20;99.90
12520;DHT22;6325;49.540;8.364;2022-11-20T20:53:59;7.80;99.90
12520;DHT22;6325;49.540;8.364;2022-11-20T20:56:30;7.10;99.90
12520;DHT22;6325;49.540;8.364;2022-11-20T20:58:59;7.20;99.90
12520;DHT22;6325;49.540;8.364;2022-11-20T21:01:26;7.50;99.90
12520;DHT22;6325;49.540;8.364;2022-11-20T21:03:56;7.20;99.90
12520;DHT22;6325;49.540;8.364;2022-11-20T21:06:26;7.50;99.90
12520;DHT22;6325;49.540;8.364;2022-11-20T21:09:01;7.20;99.90
12520;DHT22;6325;49.540;8.364;2022-11-20T21:11:48;7.50;99.90
12520;DHT22;6325;49.540;8.364;2022-11-20T21:14:22;7.30;99.90
12520;DHT22;6325;49.540;8.364;2022-11-20T21:17:02;7.20;99.90
12520;DHT22;6325;49.540;8.364;2022-11-20T21:19:47;7.00;99.90
12520;DHT22;6325;49.540;8.364;2022-11-20T21:22:22;7.30;99.90
12520;DHT22;6325;49.540;8.364;2022-11-20T21:24:58;7.00;99.90
12520;DHT22;6325;49.540;8.364;2022-11-20T21:27:35;6.80;99.90
12520;DHT22;6325;49.540;8.364;2022-11-20T21:30:12;7.20;99.90
12520;DHT22;6325;49.540;8.364;2022-11-20T21:33:00;6.90;99.90
12520;DHT22;6325;49.540;8.364;2022-11-20T21:35:43;6.80;99.90
12520;DHT22;6325;49.540;8.364;2022-11-20T21:38:15;6.90;99.90
12520;DHT22;6325;49.540;8.364;2022-11-20T21:40:55;6.90;99.90
12520;DHT22;6325;49.540;8.364;2022-11-20T21:43:36;6.80;99.90
12520;DHT22;6325;49.540;8.364;2022-11-20T21:46:14;7.10;99.90
12520;DHT22;6325;49.540;8.364;2022-11-20T21:48:56;6.80;99.90
12520;DHT22;6325;49.540;8.364;2022-11-20T21:51:34;7.50;99.90
12520;DHT22;6325;49.540;8.364;2022-11-20T21:54:10;6.50;99.90
12520;DHT22;6325;49.540;8.364;2022-11-20T21:56:47;6.90;99.90
12520;DHT22;6325;49.540;8.364;2022-11-20T21:59:21;6.50;99.90
12520;DHT22;6325;49.540;8.364;2022-11-20T22:01:58;7.20;99.90
12520;DHT22;6325;49.540;8.364;2022-11-20T22:04:29;6.50;99.90
12520;DHT22;6325;49.540;8.364;2022-11-20T22:07:13;7.00;99.90
12520;DHT22;6325;49.540;8.364;2022-11-20T22:09:41;7.00;99.90
12520;DHT22;6325;49.540;8.364;2022-11-20T22:12:08;8.00;99.90
12520;DHT22;6325;49.540;8.364;2022-11-20T22:14:35;7.70;99.90
12520;DHT22;6325;49.540;8.364;2022-11-20T22:17:01;7.10;99.90
12520;DHT22;6325;49.540;8.364;2022-11-20T22:19:28;7.30;99.90
12520;DHT22;6325;49.540;8.364;2022-11-20T22:21:56;7.10;99.90
12520;DHT22;6325;49.540;8.364;2022-11-20T22:24:27;7.70;99.90
12520;DHT22;6325;49.540;8.364;2022-11-20T22:26:56;8.10;99.90
12520;DHT22;6325;49.540;8.364;2022-11-20T22:29:26;7.60;99.90
12520;DHT22;6325;49.540;8.364;2022-11-20T22:31:54;8.00;99.90
12520;DHT22;6325;49.540;8.364;2022-11-20T22:34:21;8.20;99.90
12520;DHT22;6325;49.540;8.364;2022-11-20T22:36:50;8.10;99.90
12520;DHT22;6325;49.540;8.364;2022-11-20T22:39:18;7.90;99.90
12520;DHT22;6325;49.540;8.364;2022-11-20T22:41:48;8.20;99.90
12520;DHT22;6325;49.540;8.364;2022-11-20T22:44:18;8.20;99.90
12520;DHT22;6325;49.540;8.364;2022-11-20T22:46:47;7.90;99.90
12520;DHT22;6325;49.540;8.364;2022-11-20T22:49:14;8.50;99.90
12520;DHT22;6325;49.540;8.364;2022-11-20T22:51:42;8.30;99.90
12520;DHT22;6325;49.540;8.364;2022-11-20T22:54:10;8.30;99.90
12520;DHT22;6325;49.540;8.364;2022-11-20T22:56:38;8.30;99.90
12520;DHT22;6325;49.540;8.364;2022-11-20T22:59:09;8.20;99.90
12520;DHT22;6325;49.540;8.364;2022-11-20T23:01:36;8.60;99.90
12520;DHT22;6325;49.540;8.364;2022-11-20T23:04:06;8.30;99.90
12520;DHT22;6325;49.540;8.364;2022-11-20T23:06:34;7.80;99.90
12520;DHT22;6325;49.540;8.364;2022-11-20T23:09:02;8.20;99.90
12520;DHT22;6325;49.540;8.364;2022-11-20T23:11:31;8.30;99.90
12520;DHT22;6325;49.540;8.364;2022-11-20T23:14:03;8.40;99.90
12520;DHT22;6325;49.540;8.364;2022-11-20T23:16:33;8.00;99.90
12520;DHT22;6325;49.540;8.364;2022-11-20T23:19:02;8.20;99.90
12520;DHT22;6325;49.540;8.364;2022-11-20T23:21:31;8.30;99.90
12520;DHT22;6325;49.540;8.364;2022-11-20T23:23:59;8.30;99.90
12520;DHT22;6325;49.540;8.364;2022-11-20T23:26:28;8.20;99.90
12520;DHT22;6325;49.540;8.364;2022-11-20T23:28:59;8.30;99.90
12520;DHT22;6325;49.540;8.364;2022-11-20T23:31:33;8.40;99.90
12520;DHT22;6325;49.540;8.364;2022-11-20T23:34:03;8.30;99.90
12520;DHT22;6325;49.540;8.364;2022-11-20T23:36:32;8.50;99.90
12520;DHT22;6325;49.540;8.364;2022-11-20T23:38:59;8.30;99.90
12520;DHT22;6325;49.540;8.364;2022-11-20T23:41:27;8.30;99.90
12520;DHT22;6325;49.540;8.364;2022-11-20T23:43:54;9.00;99.90
12520;DHT22;6325;49.540;8.364;2022-11-20T23:46:22;8.90;99.90
12520;DHT22;6325;49.540;8.364;2022-11-20T23:48:52;8.70;99.90
12520;DHT22;6325;49.540;8.364;2022-11-20T23:51:20;9.30;99.90
12520;DHT22;6325;49.540;8.364;2022-11-20T23:53:50;8.60;99.90
12520;DHT22;6325;49.540;8.364;2022-11-20T23:56:21;8.50;99.90
12520;DHT22;6325;49.540;8.364;2022-11-20T23:58:54;9.20;99.90
